Terminal Aerodrome Forecast
Issued by NWS

Home | Current Version | Previous Version | Graphics & Text | Print | Product List | Glossary On
Versions: 1 2 3 4 5 6 7 8 9 10 11 12 13 14 15 16 17 18 19 20 21
562
FTUS43 KBIS 150213 AAA
TAFMOT
TAF AMD
KMOT 150213Z 1502/1524 30015KT P6SM -SN SCT012 OVC050
     FM150300 31015KT 4SM -SN BKN012 OVC040
      TEMPO 1503/1507 2SM -SN BR OVC012
     FM150700 34017G22KT 3SM -SN BLSN OVC015
     FM151100 33017KT 6SM BLSN BKN018 OVC035
     FM151800 30013KT P6SM SCT020 BKN100=

USA.gov is the U.S. government's official web portal to all federal, state and local government web resources and services.